createdAt,value
2017-02-02T00:00:24.723Z,1001.2
2017-02-02T00:10:36.138Z,1001
2017-02-02T00:20:47.517Z,1000.9
2017-02-02T00:30:58.897Z,1000.9
2017-02-02T00:41:10.256Z,1000.9
2017-02-02T00:51:21.590Z,1000.8
2017-02-02T01:01:32.948Z,1000.7
2017-02-02T01:11:44.331Z,1000.6
2017-02-02T01:21:55.781Z,1000.7
2017-02-02T01:32:07.049Z,1000.7
2017-02-02T01:42:18.375Z,1000.6
2017-02-02T01:52:29.722Z,1000.5
2017-02-02T02:02:41.065Z,1000.5
2017-02-02T02:12:52.370Z,1000.4
2017-02-02T02:23:03.705Z,1000.4
2017-02-02T02:33:15.022Z,1000.3
2017-02-02T02:43:26.370Z,1000.3
2017-02-02T02:53:37.777Z,1000.2
2017-02-02T03:03:49.168Z,1000.2
2017-02-02T03:14:00.519Z,1000.2
2017-02-02T03:24:11.813Z,1000.1
2017-02-02T03:34:23.141Z,1000.1
2017-02-02T03:44:34.454Z,1000.1
2017-02-02T03:54:45.753Z,1000
2017-02-02T04:04:57.034Z,999.9
2017-02-02T04:15:08.413Z,1000
2017-02-02T04:25:19.736Z,999.8
2017-02-02T04:35:31.070Z,999.8
2017-02-02T04:45:42.400Z,999.8
2017-02-02T04:55:53.713Z,999.7
2017-02-02T05:06:05.029Z,999.5
2017-02-02T05:16:16.361Z,999.6
2017-02-02T05:26:27.647Z,999.5
2017-02-02T05:36:38.975Z,999.5
2017-02-02T05:46:50.312Z,999.5
2017-02-02T05:57:01.674Z,999.5
2017-02-02T06:07:13.044Z,999.6
2017-02-02T06:17:24.471Z,999.6
2017-02-02T06:27:35.950Z,999.6
2017-02-02T06:37:47.432Z,999.5
2017-02-02T06:47:58.955Z,999.6
2017-02-02T06:58:10.443Z,999.6
2017-02-02T07:08:21.937Z,999.6
2017-02-02T07:18:33.391Z,999.7
2017-02-02T07:28:44.696Z,999.5
2017-02-02T07:38:56.036Z,999.5
2017-02-02T07:49:07.227Z,999.6
2017-02-02T07:59:18.287Z,999.6
2017-02-02T08:09:29.269Z,999.6
2017-02-02T08:19:40.304Z,999.5
2017-02-02T08:29:51.248Z,999.4
2017-02-02T08:40:01.998Z,999.3
2017-02-02T08:50:12.875Z,999.2
2017-02-02T09:00:23.613Z,999.2
2017-02-02T09:10:34.064Z,999.2
2017-02-02T09:20:44.241Z,999.2
2017-02-02T09:30:54.275Z,999.3
2017-02-02T09:41:04.188Z,999.1
2017-02-02T09:51:13.978Z,999.1
2017-02-02T10:01:23.750Z,999
2017-02-02T10:11:33.496Z,999
2017-02-02T10:21:43.318Z,999
2017-02-02T10:31:53.032Z,998.9
2017-02-02T10:42:02.616Z,998.9
2017-02-02T10:52:12.140Z,998.7
2017-02-02T11:02:21.619Z,998.5
2017-02-02T11:12:31.165Z,998.4
2017-02-02T11:22:40.849Z,998.4
2017-02-02T11:32:50.635Z,998.2
2017-02-02T11:43:00.243Z,998.2
2017-02-02T11:53:09.612Z,998
2017-02-02T12:03:18.884Z,997.7
2017-02-02T12:13:28.241Z,997.6
2017-02-02T12:23:37.518Z,997.4
2017-02-02T12:33:46.771Z,997.3
2017-02-02T12:43:55.940Z,997.1
2017-02-02T12:54:05.035Z,997
2017-02-02T13:04:14.071Z,996.8
2017-02-02T13:14:23.063Z,996.8
2017-02-02T13:24:31.973Z,996.8
2017-02-02T13:34:40.778Z,996.7
2017-02-02T13:44:49.646Z,996.6
2017-02-02T13:54:58.628Z,996.3
2017-02-02T14:05:07.954Z,996.3
2017-02-02T14:15:17.469Z,996.3
2017-02-02T14:25:27.144Z,996.1
2017-02-02T14:35:36.918Z,996.1
2017-02-02T14:45:46.804Z,996.1
2017-02-02T14:55:56.717Z,996
2017-02-02T15:06:06.725Z,995.8
2017-02-02T15:16:16.731Z,995.8
2017-02-02T15:26:26.825Z,995.7
2017-02-02T15:36:36.963Z,995.7
2017-02-02T15:46:47.174Z,995.7
2017-02-02T15:56:57.427Z,995.7
2017-02-02T16:07:07.631Z,995.6
2017-02-02T16:17:17.848Z,995.6
2017-02-02T16:27:28.125Z,995.6
2017-02-02T16:37:38.477Z,995.7
2017-02-02T16:47:48.890Z,995.7
2017-02-02T16:57:59.358Z,995.7
2017-02-02T17:08:09.893Z,995.7
2017-02-02T17:18:20.448Z,995.8
2017-02-02T17:28:31.090Z,995.8
2017-02-02T17:38:41.772Z,995.7
2017-02-02T17:48:52.531Z,995.7
2017-02-02T17:59:03.215Z,995.7
2017-02-02T18:09:13.991Z,995.7
2017-02-02T18:19:24.711Z,995.8
2017-02-02T18:29:35.462Z,995.7
2017-02-02T18:39:46.243Z,995.7
2017-02-02T18:49:57.055Z,995.5
2017-02-02T19:00:07.857Z,995.6
2017-02-02T19:10:18.710Z,995.6
2017-02-02T19:20:29.505Z,995.6
2017-02-02T19:30:40.329Z,995.4
2017-02-02T19:40:51.168Z,995.4
2017-02-02T19:51:02.099Z,995.4
2017-02-02T20:01:13.022Z,995.5
2017-02-02T20:11:23.901Z,995.4
2017-02-02T20:21:34.833Z,995.3
2017-02-02T20:31:45.859Z,995.2
2017-02-02T20:41:56.946Z,995.2
2017-02-02T20:52:07.975Z,995.1
2017-02-02T21:02:19.103Z,995.1
2017-02-02T21:12:30.198Z,995
2017-02-02T21:22:41.354Z,994.8
2017-02-02T21:32:52.508Z,994.8
2017-02-02T21:43:03.694Z,994.7
2017-02-02T21:53:14.892Z,994.6
2017-02-02T22:03:26.161Z,994.6
2017-02-02T22:13:37.422Z,994.5
2017-02-02T22:23:48.677Z,994.4
2017-02-02T22:33:59.892Z,994.3
2017-02-02T22:44:11.168Z,994.2
2017-02-02T22:54:22.459Z,994.2
2017-02-02T23:04:33.747Z,994.2
2017-02-02T23:14:45.020Z,994.2
2017-02-02T23:24:56.243Z,994.2
2017-02-02T23:35:07.488Z,994
2017-02-02T23:45:18.720Z,994
2017-02-02T23:55:29.973Z,993.9
